createdAt,value
2024-02-02T00:01:45.444Z,5.00
2024-02-02T00:04:13.757Z,4.90
2024-02-02T00:06:40.747Z,5.00
2024-02-02T00:09:07.958Z,5.00
2024-02-02T00:11:35.192Z,5.10
2024-02-02T00:14:02.130Z,5.10
2024-02-02T00:16:29.615Z,5.10
2024-02-02T00:18:56.588Z,5.10
2024-02-02T00:21:23.544Z,5.00
2024-02-02T00:23:50.386Z,7.40
2024-02-02T00:26:17.193Z,4.90
2024-02-02T00:28:44.167Z,4.90
2024-02-02T00:31:10.967Z,4.90
2024-02-02T00:36:05.518Z,5.00
2024-02-02T00:38:32.270Z,5.10
2024-02-02T00:40:58.965Z,5.10
2024-02-02T00:43:25.821Z,5.10
2024-02-02T00:45:52.661Z,5.10
2024-02-02T00:48:19.666Z,5.20
2024-02-02T00:50:47.245Z,5.20
2024-02-02T00:53:14.234Z,5.20
2024-02-02T00:55:41.024Z,5.30
2024-02-02T00:58:07.912Z,5.30
2024-02-02T01:00:35.011Z,5.30
2024-02-02T01:03:02.061Z,5.30
2024-02-02T01:05:29.865Z,5.40
2024-02-02T01:07:56.653Z,5.40
2024-02-02T01:10:23.523Z,5.40
2024-02-02T01:12:50.349Z,5.40
2024-02-02T01:15:17.886Z,5.40
2024-02-02T01:17:46.935Z,5.50
2024-02-02T01:20:15.127Z,5.50
2024-02-02T01:22:42.473Z,5.50
2024-02-02T01:25:10.862Z,5.50
2024-02-02T01:27:37.647Z,5.50
2024-02-02T01:30:04.917Z,5.50
2024-02-02T01:32:31.643Z,5.60
2024-02-02T01:34:58.412Z,5.60
2024-02-02T01:37:25.435Z,5.60
2024-02-02T01:39:52.298Z,5.60
2024-02-02T01:42:19.204Z,5.60
2024-02-02T01:44:45.931Z,7.90
2024-02-02T01:47:12.917Z,5.70
2024-02-02T01:49:39.835Z,5.70
2024-02-02T01:52:07.192Z,5.70
2024-02-02T01:54:34.631Z,5.70
2024-02-02T01:57:01.490Z,5.70
2024-02-02T01:59:29.130Z,8.80
2024-02-02T02:01:56.061Z,5.70
2024-02-02T02:04:23.770Z,5.80
2024-02-02T02:06:50.628Z,5.70
2024-02-02T02:09:17.744Z,5.80
2024-02-02T02:11:44.745Z,5.80
2024-02-02T02:14:11.498Z,5.80
2024-02-02T02:16:38.211Z,5.80
2024-02-02T02:19:05.467Z,5.80
2024-02-02T02:21:32.419Z,5.80
2024-02-02T02:23:59.399Z,5.90
2024-02-02T02:26:30.234Z,5.80
2024-02-02T02:28:57.072Z,5.90
2024-02-02T02:31:23.999Z,5.90
2024-02-02T02:33:51.348Z,5.90
2024-02-02T02:36:19.397Z,8.70
2024-02-02T02:38:46.629Z,5.90
2024-02-02T02:41:13.491Z,5.90
2024-02-02T02:43:40.559Z,5.90
2024-02-02T02:46:08.222Z,5.90
2024-02-02T02:48:35.827Z,6.00
2024-02-02T02:51:02.709Z,5.90
2024-02-02T02:53:30.187Z,5.90
2024-02-02T02:55:57.220Z,5.90
2024-02-02T02:58:24.325Z,5.90
2024-02-02T03:00:53.750Z,5.90
2024-02-02T03:03:20.561Z,5.90
2024-02-02T03:05:48.219Z,6.00
2024-02-02T03:08:15.144Z,6.00
2024-02-02T03:10:43.138Z,6.00
2024-02-02T03:13:10.989Z,6.00
2024-02-02T03:15:39.601Z,6.00
2024-02-02T03:18:06.701Z,6.00
2024-02-02T03:20:33.572Z,6.00
2024-02-02T03:23:00.968Z,6.00
2024-02-02T03:25:27.652Z,6.00
2024-02-02T03:27:54.464Z,6.00
2024-02-02T03:30:21.252Z,6.00
2024-02-02T03:32:48.205Z,6.00
2024-02-02T03:35:14.965Z,6.00
2024-02-02T03:37:41.741Z,6.00
2024-02-02T03:40:10.091Z,6.00
2024-02-02T03:42:37.267Z,6.00
2024-02-02T03:45:06.895Z,6.00
2024-02-02T03:47:33.749Z,6.00
2024-02-02T03:50:00.768Z,6.00
2024-02-02T03:52:27.644Z,6.00
2024-02-02T03:54:57.414Z,6.70
2024-02-02T03:57:24.475Z,6.00
2024-02-02T03:59:51.286Z,6.00
2024-02-02T04:02:18.207Z,6.00
2024-02-02T04:04:45.577Z,6.10
2024-02-02T04:07:12.520Z,6.10
2024-02-02T04:09:39.914Z,6.10
2024-02-02T04:12:07.135Z,6.10
2024-02-02T04:14:34.008Z,6.10
2024-02-02T04:17:00.719Z,6.10
2024-02-02T04:19:27.523Z,6.10
2024-02-02T04:21:54.348Z,6.00
2024-02-02T04:24:21.156Z,6.00
2024-02-02T04:26:47.930Z,6.00
2024-02-02T04:29:14.713Z,6.00
2024-02-02T04:31:41.757Z,6.00
2024-02-02T04:34:08.771Z,6.00
2024-02-02T04:36:35.589Z,6.00
2024-02-02T04:39:02.394Z,6.00
2024-02-02T04:41:29.423Z,6.00
2024-02-02T04:43:56.160Z,6.00
2024-02-02T04:46:23.419Z,5.90
2024-02-02T04:48:50.304Z,6.00
2024-02-02T04:51:17.093Z,5.90
2024-02-02T04:53:43.882Z,5.90
2024-02-02T04:56:10.779Z,5.90
2024-02-02T04:58:37.477Z,6.00
2024-02-02T05:01:04.646Z,5.90
2024-02-02T05:03:33.282Z,5.90
2024-02-02T05:06:00.228Z,5.90
2024-02-02T05:08:27.065Z,5.90
2024-02-02T05:10:53.847Z,5.90
2024-02-02T05:13:20.556Z,5.90
2024-02-02T05:15:47.434Z,5.80
2024-02-02T05:18:15.483Z,5.90
2024-02-02T05:20:42.304Z,5.80
2024-02-02T05:23:09.381Z,5.90
2024-02-02T05:25:36.892Z,5.80
2024-02-02T05:28:05.209Z,5.90
2024-02-02T05:30:32.083Z,5.90
2024-02-02T05:32:59.062Z,5.90
2024-02-02T05:35:26.012Z,5.90
2024-02-02T05:37:52.862Z,5.90
2024-02-02T05:40:19.701Z,5.90
2024-02-02T05:42:46.953Z,5.90
2024-02-02T05:45:14.191Z,5.90
2024-02-02T05:47:41.086Z,5.90
2024-02-02T05:50:08.162Z,5.80
2024-02-02T05:52:34.943Z,5.90
2024-02-02T05:55:02.771Z,5.80
2024-02-02T05:57:30.017Z,6.60
2024-02-02T05:59:56.901Z,7.80
2024-02-02T06:02:23.817Z,5.80
2024-02-02T06:04:52.139Z,5.80
2024-02-02T06:07:19.169Z,5.80
2024-02-02T06:09:46.112Z,5.80
2024-02-02T06:12:12.893Z,5.80
2024-02-02T06:14:40.914Z,5.80
2024-02-02T06:17:10.342Z,5.80
2024-02-02T06:19:37.457Z,5.80
2024-02-02T06:22:04.312Z,5.80
2024-02-02T06:24:31.135Z,5.80
2024-02-02T06:26:57.914Z,5.80
2024-02-02T06:29:27.309Z,5.80
2024-02-02T06:31:55.584Z,8.10
2024-02-02T06:34:22.444Z,5.80
2024-02-02T06:36:49.221Z,6.30
2024-02-02T06:39:16.047Z,8.90
2024-02-02T06:41:42.944Z,5.70
2024-02-02T06:44:09.679Z,5.70
2024-02-02T06:46:36.451Z,5.70
2024-02-02T06:49:03.410Z,5.70
2024-02-02T06:51:30.393Z,5.70
2024-02-02T06:53:57.293Z,5.70
2024-02-02T06:56:44.236Z,8.10
2024-02-02T06:59:11.207Z,5.70
2024-02-02T07:01:39.269Z,5.60
2024-02-02T07:04:09.914Z,5.60
2024-02-02T07:06:37.051Z,5.60
2024-02-02T07:09:20.278Z,5.60
2024-02-02T07:12:11.927Z,5.70
2024-02-02T07:14:44.686Z,5.60
2024-02-02T07:17:35.201Z,5.60
2024-02-02T07:20:05.528Z,5.60
2024-02-02T07:22:40.327Z,5.50
2024-02-02T07:25:13.425Z,7.00
2024-02-02T07:27:56.395Z,5.50
2024-02-02T07:30:32.382Z,5.50
2024-02-02T07:33:00.629Z,5.50
2024-02-02T07:35:35.086Z,5.50
2024-02-02T07:38:05.371Z,5.50
2024-02-02T07:40:32.131Z,5.50
2024-02-02T07:42:58.950Z,5.50
2024-02-02T07:45:25.925Z,5.60
2024-02-02T07:47:53.329Z,5.40
2024-02-02T07:50:20.164Z,5.40
2024-02-02T07:52:46.909Z,5.40
2024-02-02T07:55:13.820Z,5.40
2024-02-02T07:57:40.545Z,5.40
2024-02-02T08:00:09.143Z,5.30
2024-02-02T08:02:35.909Z,5.30
2024-02-02T08:05:09.006Z,5.30
2024-02-02T08:07:35.903Z,5.30
2024-02-02T08:10:02.623Z,5.20
2024-02-02T08:12:30.789Z,5.20
2024-02-02T08:14:58.420Z,7.30
2024-02-02T08:17:25.168Z,5.70
2024-02-02T08:19:52.211Z,5.10
2024-02-02T08:22:19.002Z,5.10
2024-02-02T08:24:46.104Z,5.00
2024-02-02T08:27:13.025Z,5.00
2024-02-02T08:29:39.807Z,4.90
2024-02-02T08:32:06.909Z,4.80
2024-02-02T08:34:34.039Z,4.80
2024-02-02T08:37:03.076Z,7.40
2024-02-02T08:39:35.119Z,4.70
2024-02-02T08:42:03.548Z,4.80
2024-02-02T08:44:34.680Z,4.70
2024-02-02T08:47:01.466Z,4.60
2024-02-02T08:49:43.761Z,4.60
2024-02-02T08:52:25.813Z,4.50
2024-02-02T08:54:52.924Z,4.50
2024-02-02T08:57:32.746Z,4.40
2024-02-02T09:00:21.583Z,4.30
2024-02-02T09:03:06.047Z,4.40
2024-02-02T09:06:08.542Z,4.30
2024-02-02T09:08:39.307Z,4.20
2024-02-02T09:11:25.450Z,4.10
2024-02-02T09:14:09.744Z,4.00
2024-02-02T09:16:45.647Z,4.00
2024-02-02T09:19:29.980Z,4.00
2024-02-02T09:22:00.669Z,4.00
2024-02-02T09:24:51.195Z,4.00
2024-02-02T09:27:33.763Z,3.90
2024-02-02T09:30:03.012Z,3.90
2024-02-02T09:32:30.378Z,3.90
2024-02-02T09:35:02.123Z,3.80
2024-02-02T09:37:43.825Z,3.90
2024-02-02T09:40:33.969Z,3.90
2024-02-02T09:43:24.767Z,3.90
2024-02-02T09:46:10.414Z,3.90
2024-02-02T09:48:56.625Z,3.90
2024-02-02T09:51:49.000Z,3.90
2024-02-02T09:54:38.345Z,4.00
2024-02-02T09:57:36.971Z,4.00
2024-02-02T10:00:18.736Z,4.10
2024-02-02T10:03:12.531Z,4.10
2024-02-02T10:06:10.931Z,4.30
2024-02-02T10:09:04.665Z,4.40
2024-02-02T10:11:59.104Z,4.40
2024-02-02T10:14:45.838Z,4.50
2024-02-02T10:17:41.362Z,4.60
2024-02-02T10:20:26.458Z,4.70
2024-02-02T10:23:28.140Z,4.70
2024-02-02T10:26:13.640Z,4.80
2024-02-02T10:28:40.308Z,4.90
2024-02-02T10:31:20.909Z,5.00
2024-02-02T10:34:10.241Z,5.00
2024-02-02T10:37:06.388Z,5.10
2024-02-02T10:40:00.558Z,5.20
2024-02-02T10:42:55.877Z,5.30
2024-02-02T10:45:49.338Z,5.40
2024-02-02T10:48:34.799Z,5.40
2024-02-02T10:51:01.632Z,5.40
2024-02-02T10:53:42.591Z,5.50
2024-02-02T10:56:18.244Z,5.50
2024-02-02T10:59:19.424Z,5.60
2024-02-02T11:02:01.069Z,5.60
2024-02-02T11:04:54.996Z,5.60
2024-02-02T11:07:28.487Z,5.70
2024-02-02T11:10:02.508Z,5.70
2024-02-02T11:12:47.061Z,8.70
2024-02-02T11:15:40.001Z,5.70
2024-02-02T11:18:28.289Z,5.80
2024-02-02T11:21:07.700Z,5.80
2024-02-02T11:23:42.273Z,5.80
2024-02-02T11:26:27.527Z,7.50
2024-02-02T11:29:22.912Z,5.80
2024-02-02T11:32:12.895Z,6.80
2024-02-02T11:35:00.433Z,5.90
2024-02-02T11:37:38.936Z,6.00
2024-02-02T11:40:09.655Z,6.00
2024-02-02T11:42:40.969Z,6.00
2024-02-02T11:45:24.487Z,6.10
2024-02-02T11:48:09.664Z,8.10
2024-02-02T11:50:45.134Z,6.10
2024-02-02T11:53:49.200Z,6.10
2024-02-02T11:56:22.510Z,6.10
2024-02-02T11:59:07.744Z,6.20
2024-02-02T12:02:03.671Z,9.30
2024-02-02T12:04:59.520Z,6.20
2024-02-02T12:07:50.062Z,6.20
2024-02-02T12:10:18.626Z,6.30
2024-02-02T12:12:53.198Z,6.30
2024-02-02T12:15:20.631Z,6.30
2024-02-02T12:17:49.499Z,6.30
2024-02-02T12:20:18.936Z,6.30
2024-02-02T12:22:46.773Z,6.40
2024-02-02T12:25:15.610Z,6.40
2024-02-02T12:27:43.409Z,7.90
2024-02-02T12:30:12.985Z,6.50
2024-02-02T12:32:40.338Z,6.50
2024-02-02T12:35:07.824Z,6.70
2024-02-02T12:37:49.102Z,6.60
2024-02-02T12:40:16.847Z,6.60
2024-02-02T12:42:44.011Z,6.70
2024-02-02T12:45:14.639Z,6.70
2024-02-02T12:47:41.912Z,6.70
2024-02-02T12:50:15.983Z,6.70
2024-02-02T12:52:44.016Z,6.70
2024-02-02T12:55:11.809Z,6.70
2024-02-02T12:57:38.602Z,6.70
2024-02-02T13:00:06.439Z,6.70
2024-02-02T13:02:33.605Z,6.70
2024-02-02T13:05:01.762Z,6.70
2024-02-02T13:07:29.257Z,8.60
2024-02-02T13:09:58.991Z,6.70
2024-02-02T13:12:29.764Z,6.80
2024-02-02T13:15:22.799Z,6.80
2024-02-02T13:18:05.330Z,6.80
2024-02-02T13:20:35.868Z,6.90
2024-02-02T13:23:16.113Z,6.90
2024-02-02T13:25:43.319Z,6.90
2024-02-02T13:28:22.543Z,7.00
2024-02-02T13:31:06.132Z,7.00
2024-02-02T13:33:34.268Z,7.00
2024-02-02T13:36:04.193Z,7.10
2024-02-02T13:38:34.807Z,7.10
2024-02-02T13:41:02.134Z,7.10
2024-02-02T13:43:29.715Z,9.50
2024-02-02T13:46:08.609Z,7.20
2024-02-02T13:48:37.786Z,7.20
2024-02-02T13:51:06.150Z,7.20
2024-02-02T13:53:33.181Z,9.60
2024-02-02T13:56:05.794Z,7.20
2024-02-02T13:58:39.231Z,7.30
2024-02-02T14:01:21.588Z,7.30
2024-02-02T14:03:52.674Z,7.30
2024-02-02T14:06:20.025Z,7.30
2024-02-02T14:08:51.021Z,7.30
2024-02-02T14:11:25.821Z,10.00
2024-02-02T14:13:56.295Z,7.30
2024-02-02T14:16:24.588Z,10.60
2024-02-02T14:19:02.140Z,7.30
2024-02-02T14:21:31.397Z,7.30
2024-02-02T14:24:08.606Z,7.30
2024-02-02T14:26:46.414Z,7.40
2024-02-02T14:29:13.358Z,7.40
2024-02-02T14:31:40.451Z,7.40
2024-02-02T14:34:07.355Z,7.40
2024-02-02T14:36:34.703Z,9.70
2024-02-02T14:39:02.659Z,7.40
2024-02-02T14:41:29.514Z,7.40
2024-02-02T14:43:56.317Z,7.40
2024-02-02T14:46:23.149Z,9.50
2024-02-02T14:48:50.056Z,7.40
2024-02-02T14:51:16.890Z,7.40
2024-02-02T14:53:43.805Z,9.50
2024-02-02T14:56:10.534Z,7.40
2024-02-02T14:58:37.447Z,9.50
2024-02-02T15:01:08.807Z,8.00
2024-02-02T15:03:35.624Z,7.50
2024-02-02T15:06:02.810Z,7.60
2024-02-02T15:08:29.633Z,7.50
2024-02-02T15:10:56.365Z,9.60
2024-02-02T15:13:23.662Z,10.00
2024-02-02T15:15:50.789Z,7.40
2024-02-02T15:18:17.763Z,10.40
2024-02-02T15:20:45.724Z,7.40
2024-02-02T15:23:12.771Z,7.40
2024-02-02T15:25:39.642Z,7.50
2024-02-02T15:28:06.662Z,7.50
2024-02-02T15:30:33.445Z,7.50
2024-02-02T15:33:00.292Z,7.50
2024-02-02T15:35:27.201Z,8.90
2024-02-02T15:37:53.999Z,7.50
2024-02-02T15:40:21.137Z,7.50
2024-02-02T15:42:51.265Z,7.50
2024-02-02T15:45:18.527Z,7.50
2024-02-02T15:47:46.687Z,7.50
2024-02-02T15:50:14.799Z,7.60
2024-02-02T15:52:41.619Z,7.60
2024-02-02T15:55:08.790Z,7.50
2024-02-02T15:57:35.742Z,7.50
2024-02-02T16:00:05.133Z,7.50
2024-02-02T16:02:31.997Z,7.50
2024-02-02T16:04:58.966Z,9.10
2024-02-02T16:07:25.948Z,7.40
2024-02-02T16:09:53.078Z,10.50
2024-02-02T16:12:20.430Z,8.20
2024-02-02T16:14:47.434Z,7.40
2024-02-02T16:17:14.148Z,8.70
2024-02-02T16:19:41.196Z,7.40
2024-02-02T16:22:08.068Z,7.40
2024-02-02T16:24:35.552Z,7.40
2024-02-02T16:27:03.637Z,7.30
2024-02-02T16:29:30.415Z,10.00
2024-02-02T16:31:57.185Z,7.30
2024-02-02T16:34:24.137Z,7.30
2024-02-02T16:36:50.965Z,7.30
2024-02-02T16:39:18.032Z,7.30
2024-02-02T16:41:45.634Z,7.40
2024-02-02T16:44:14.706Z,7.30
2024-02-02T16:46:42.760Z,7.30
2024-02-02T16:49:09.990Z,7.30
2024-02-02T16:51:39.719Z,7.30
2024-02-02T16:54:10.079Z,7.30
2024-02-02T16:56:37.397Z,7.30
2024-02-02T16:59:05.053Z,7.30
2024-02-02T17:01:33.913Z,7.30
2024-02-02T17:04:01.653Z,7.50
2024-02-02T17:06:31.583Z,7.40
2024-02-02T17:08:58.576Z,7.40
2024-02-02T17:11:25.593Z,7.40
2024-02-02T17:13:52.909Z,7.40
2024-02-02T17:16:21.434Z,7.40
2024-02-02T17:18:48.623Z,7.50
2024-02-02T17:21:16.115Z,7.50
2024-02-02T17:23:43.117Z,7.50
2024-02-02T17:26:14.701Z,7.50
2024-02-02T17:28:42.122Z,7.50
2024-02-02T17:31:18.390Z,7.50
2024-02-02T17:33:45.427Z,7.50
2024-02-02T17:36:15.331Z,7.50
2024-02-02T17:38:42.959Z,7.50
2024-02-02T17:41:16.842Z,7.50
2024-02-02T17:43:45.390Z,7.50
2024-02-02T17:46:16.717Z,7.50
2024-02-02T17:48:43.668Z,7.50
2024-02-02T17:51:10.986Z,7.50
2024-02-02T17:53:41.186Z,7.50
2024-02-02T17:56:09.382Z,7.50
2024-02-02T17:58:36.867Z,7.50
2024-02-02T18:01:06.804Z,7.50
2024-02-02T18:03:34.398Z,7.50
2024-02-02T18:06:02.171Z,7.50
2024-02-02T18:08:30.057Z,7.50
2024-02-02T18:10:57.018Z,7.50
2024-02-02T18:13:24.067Z,7.50
2024-02-02T18:15:50.972Z,7.50
2024-02-02T18:18:18.994Z,7.50
2024-02-02T18:20:46.289Z,7.50
2024-02-02T18:23:13.080Z,7.80
2024-02-02T18:25:40.199Z,7.50
2024-02-02T18:28:13.466Z,7.50
2024-02-02T18:30:41.892Z,7.40
2024-02-02T18:33:09.129Z,7.40
2024-02-02T18:35:36.404Z,7.40
2024-02-02T18:38:03.645Z,7.40
2024-02-02T18:40:30.768Z,7.40
2024-02-02T18:42:57.895Z,7.50
2024-02-02T18:45:25.983Z,7.50
2024-02-02T18:47:52.925Z,8.40
2024-02-02T18:50:19.981Z,7.50
2024-02-02T18:52:47.852Z,9.00
2024-02-02T18:55:15.394Z,7.50
2024-02-02T18:57:42.263Z,7.60
2024-02-02T19:00:09.807Z,7.60
2024-02-02T19:02:36.604Z,7.60
2024-02-02T19:05:03.543Z,7.60
2024-02-02T19:07:32.518Z,7.60
2024-02-02T19:09:59.540Z,7.60
2024-02-02T19:12:26.519Z,7.60
2024-02-02T19:14:53.473Z,7.60
2024-02-02T19:17:20.208Z,7.60
2024-02-02T19:19:47.070Z,7.60
2024-02-02T19:22:13.830Z,9.90
2024-02-02T19:24:40.650Z,7.60
2024-02-02T19:27:07.498Z,8.60
2024-02-02T19:29:34.305Z,7.60
2024-02-02T19:32:00.983Z,7.50
2024-02-02T19:34:27.779Z,7.50
2024-02-02T19:36:54.621Z,7.50
2024-02-02T19:39:21.349Z,7.40
2024-02-02T19:41:48.467Z,7.40
2024-02-02T19:44:15.253Z,7.40
2024-02-02T19:46:42.448Z,7.40
2024-02-02T19:49:11.470Z,7.40
2024-02-02T19:51:39.440Z,7.40
2024-02-02T19:54:06.398Z,7.40
2024-02-02T19:56:33.285Z,7.40
2024-02-02T19:59:00.033Z,7.40
2024-02-02T20:01:27.123Z,7.30
2024-02-02T20:03:54.631Z,7.40
2024-02-02T20:06:22.040Z,7.30
2024-02-02T20:08:49.674Z,7.30
2024-02-02T20:11:17.981Z,7.30
2024-02-02T20:13:45.862Z,7.30
2024-02-02T20:16:17.538Z,7.30
2024-02-02T20:18:45.006Z,7.30
2024-02-02T20:21:16.152Z,7.30
2024-02-02T20:23:45.685Z,10.30
2024-02-02T20:26:18.474Z,7.40
2024-02-02T20:28:46.677Z,7.40
2024-02-02T20:31:13.574Z,7.40
2024-02-02T20:33:40.417Z,7.40
2024-02-02T20:36:07.852Z,7.40
2024-02-02T20:38:34.934Z,7.50
2024-02-02T20:41:07.953Z,7.50
2024-02-02T20:43:34.783Z,7.50
2024-02-02T20:46:01.774Z,7.50
2024-02-02T20:48:28.559Z,7.50
2024-02-02T20:50:55.844Z,7.50
2024-02-02T20:53:22.903Z,7.60
2024-02-02T20:55:50.288Z,7.60
2024-02-02T20:58:17.292Z,7.60
2024-02-02T21:00:44.139Z,7.60
2024-02-02T21:03:11.383Z,10.20
2024-02-02T21:05:38.458Z,7.60
2024-02-02T21:08:05.787Z,7.60
2024-02-02T21:10:32.679Z,7.60
2024-02-02T21:12:59.672Z,7.60
2024-02-02T21:15:33.108Z,7.70
2024-02-02T21:18:07.272Z,7.70
2024-02-02T21:20:42.175Z,7.70
2024-02-02T21:23:09.023Z,7.70
2024-02-02T21:25:35.859Z,7.70
2024-02-02T21:28:02.701Z,7.80
2024-02-02T21:30:29.784Z,7.70
2024-02-02T21:32:56.555Z,7.80
2024-02-02T21:35:23.625Z,7.80
2024-02-02T21:37:50.400Z,7.80
2024-02-02T21:40:17.257Z,7.80
2024-02-02T21:42:44.297Z,7.80
2024-02-02T21:45:11.283Z,10.50
2024-02-02T21:47:38.139Z,7.80
2024-02-02T21:50:05.882Z,7.80
2024-02-02T21:52:32.863Z,7.80
2024-02-02T21:54:59.595Z,7.80
2024-02-02T21:57:26.359Z,10.70
2024-02-02T21:59:53.181Z,7.90
2024-02-02T22:02:20.020Z,7.90
2024-02-02T22:04:53.557Z,7.90
2024-02-02T22:07:21.317Z,7.90
2024-02-02T22:09:48.322Z,7.90
2024-02-02T22:12:15.304Z,8.00
2024-02-02T22:14:43.882Z,8.00
2024-02-02T22:17:11.545Z,8.00
2024-02-02T22:19:41.722Z,8.00
2024-02-02T22:22:08.568Z,8.00
2024-02-02T22:24:42.983Z,8.10
2024-02-02T22:27:10.401Z,8.10
2024-02-02T22:29:37.350Z,9.20
2024-02-02T22:32:04.640Z,8.10
2024-02-02T22:34:31.834Z,8.10
2024-02-02T22:36:58.850Z,8.20
2024-02-02T22:39:25.679Z,8.20
2024-02-02T22:41:52.480Z,8.20
2024-02-02T22:44:19.237Z,8.20
2024-02-02T22:46:46.037Z,9.70
2024-02-02T22:49:13.184Z,8.20
2024-02-02T22:51:47.455Z,8.20
2024-02-02T22:54:14.641Z,8.20
2024-02-02T22:56:41.899Z,8.30
2024-02-02T22:59:09.167Z,8.20
2024-02-02T23:01:36.011Z,8.20
2024-02-02T23:04:03.708Z,9.10
2024-02-02T23:06:31.184Z,8.20
2024-02-02T23:08:58.359Z,11.00
2024-02-02T23:11:25.143Z,10.80
2024-02-02T23:13:52.009Z,8.20
2024-02-02T23:16:19.019Z,8.20
2024-02-02T23:18:46.717Z,8.20
2024-02-02T23:21:14.292Z,8.30
2024-02-02T23:23:42.640Z,8.20
2024-02-02T23:26:13.915Z,8.40
2024-02-02T23:28:41.195Z,8.30
2024-02-02T23:31:09.177Z,8.20
2024-02-02T23:33:36.584Z,8.30
2024-02-02T23:36:03.679Z,8.20
2024-02-02T23:38:30.670Z,8.20
2024-02-02T23:40:57.663Z,8.20
2024-02-02T23:43:24.674Z,8.20
2024-02-02T23:45:52.120Z,8.20
2024-02-02T23:48:19.591Z,8.20
2024-02-02T23:50:46.606Z,8.20
2024-02-02T23:53:13.559Z,8.30
2024-02-02T23:55:40.449Z,9.70
2024-02-02T23:58:07.549Z,8.30
